| time (UTC) | temp F | wind direction | speed MPH | gust MPH | rain 1hr in | rain 24hr in | rain mn in | humidity % | barometer mb |
| 20260509191820 | 70 | 180 | 2.0 | 3.0 | 0.00 | 0.00 | 0.00 | 66 | 1009.3 |
| 20260509190819 | 71 | 180 | 6.0 | 9.0 | 0.00 | 0.00 | 0.00 | 65 | 1009.7 |
| 20260509185820 | 72 | 180 | 2.0 | 6.0 | 0.00 | 0.00 | 0.00 | 65 | 1009.8 |
| 20260509184839 | 72 | 180 | 4.0 | 6.0 | 0.00 | 0.00 | 0.00 | 62 | 1009.8 |
| 20260509183820 | 72 | 180 | 1.0 | 2.0 | 0.00 | 0.00 | 0.00 | 64 | 1009.9 |
| 20260509182819 | 72 | 180 | 5.0 | 10.0 | 0.00 | 0.00 | 0.00 | 63 | 1009.9 |
| 20260509181820 | 72 | 203 | 3.0 | 6.0 | 0.00 | 0.00 | 0.00 | 65 | 1010.1 |
| 20260509180839 | 72 | 203 | 2.0 | 4.0 | 0.00 | 0.00 | 0.00 | 65 | 1010.3 |
| 20260509175820 | 71 | 158 | 4.0 | 5.0 | 0.00 | 0.00 | 0.00 | 64 | 1010.3 |
| 20260509174819 | 71 | 180 | 4.0 | 5.0 | 0.00 | 0.00 | 0.00 | 63 | 1010.3 |
| 20260509173819 | 72 | 180 | 4.0 | 7.0 | 0.00 | 0.00 | 0.00 | 65 | 1010.4 |
| 20260509172819 | 72 | 180 | 3.0 | 6.0 | 0.00 | 0.00 | 0.00 | 63 | 1010.4 |
| 20260509171818 | 73 | 135 | 4.0 | 10.0 | 0.00 | 0.00 | 0.00 | 62 | 1010.4 |
| 20260509170819 | 74 | 180 | 5.0 | 10.0 | 0.00 | 0.00 | 0.00 | 57 | 1010.4 |
| 20260509165819 | 74 | 203 | 4.0 | 7.0 | 0.00 | 0.00 | 0.00 | 57 | 1010.5 |
| 20260509164840 | 74 | 180 | 3.0 | 5.0 | 0.00 | 0.00 | 0.00 | 56 | 1010.4 |
| 20260509163839 | 74 | 203 | 8.0 | 15.0 | 0.00 | 0.00 | 0.00 | 57 | 1010.4 |
| 20260509162819 | 74 | 203 | 6.0 | 13.0 | 0.00 | 0.00 | 0.00 | 56 | 1010.5 |
| 20260509161820 | 73 | 203 | 6.0 | 10.0 | 0.00 | 0.00 | 0.00 | 61 | 1010.7 |
| 20260509160819 | 73 | 225 | 5.0 | 10.0 | 0.00 | 0.00 | 0.00 | 60 | 1011.0 |
| 20260509155819 | 73 | 180 | 4.0 | 7.0 | 0.00 | 0.00 | 0.00 | 60 | 1010.8 |
| 20260509154819 | 71 | 203 | 5.0 | 10.0 | 0.00 | 0.00 | 0.00 | 63 | 1010.8 |
| 20260509153819 | 70 | 203 | 6.0 | 10.0 | 0.00 | 0.00 | 0.00 | 62 | 1010.9 |
| 20260509152859 | 71 | 158 | 5.0 | 11.0 | 0.00 | 0.00 | 0.00 | 60 | 1011.1 |
| 20260509151819 | 70 | 158 | 4.0 | 10.0 | 0.00 | 0.00 | 0.00 | 63 | 1011.4 |
| 20260509150859 | 70 | 158 | 4.0 | 7.0 | 0.00 | 0.00 | 0.00 | 63 | 1011.6 |
| 20260509145819 | 70 | 180 | 4.0 | 5.0 | 0.00 | 0.00 | 0.00 | 66 | 1011.8 |
| 20260509144839 | 69 | 180 | 4.0 | 9.0 | 0.00 | 0.00 | 0.00 | 65 | 1011.9 |
| 20260509143819 | 68 | 158 | 5.0 | 10.0 | 0.00 | 0.00 | 0.00 | 66 | 1011.9 |
| 20260509142819 | 67 | 158 | 3.0 | 6.0 | 0.00 | 0.00 | 0.00 | 66 | 1012.0 |
| 20260509141819 | 67 | 203 | 7.0 | 11.0 | 0.00 | 0.00 | 0.00 | 65 | 1012.1 |
| 20260509140819 | 68 | 203 | 3.0 | 7.0 | 0.00 | 0.00 | 0.00 | 67 | 1012.1 |
| 20260509135819 | 68 | 180 | 5.0 | 10.0 | 0.00 | 0.00 | 0.00 | 65 | 1012.1 |
| 20260509134819 | 68 | 180 | 4.0 | 12.0 | 0.00 | 0.00 | 0.00 | 65 | 1012.1 |
| 20260509133819 | 68 | 180 | 5.0 | 11.0 | 0.00 | 0.00 | 0.00 | 66 | 1012.1 |
| 20260509132838 | 68 | 158 | 3.0 | 5.0 | 0.00 | 0.00 | 0.00 | 70 | 1012.1 |
| 20260509131819 | 67 | 180 | 2.0 | 5.0 | 0.00 | 0.00 | 0.00 | 70 | 1012.2 |
| 20260509130819 | 66 | 180 | 5.0 | 9.0 | 0.00 | 0.00 | 0.00 | 71 | 1012.2 |
| 20260509125819 | 65 | 135 | 3.0 | 5.0 | 0.00 | 0.00 | 0.00 | 72 | 1012.3 |
| 20260509124819 | 64 | 180 | 2.0 | 5.0 | 0.00 | 0.00 | 0.00 | 76 | 1012.3 |
| 20260509123819 | 63 | 180 | 4.0 | 7.0 | 0.00 | 0.00 | 0.00 | 75 | 1012.3 |
| 20260509122819 | 63 | 180 | 5.0 | 7.0 | 0.00 | 0.00 | 0.00 | 77 | 1012.4 |
| 20260509121819 | 62 | 158 | 2.0 | 4.0 | 0.00 | 0.00 | 0.00 | 78 | 1012.4 |
| 20260509120819 | 61 | 180 | 4.0 | 9.0 | 0.00 | 0.00 | 0.00 | 80 | 1012.4 |
| 20260509115819 | 60 | 180 | 2.0 | 3.0 | 0.00 | 0.00 | 0.00 | 81 | 1012.4 |
| 20260509114818 | 60 | 180 | 2.0 | 3.0 | 0.00 | 0.00 | 0.00 | 83 | 1012.4 |
| 20260509113819 | 59 | 158 | 2.0 | 5.0 | 0.00 | 0.00 | 0.00 | 82 | 1012.5 |
| 20260509112819 | 59 | 180 | 1.0 | 2.0 | 0.00 | 0.00 | 0.00 | 82 | 1012.5 |
| 20260509111938 | 59 | 180 | 7.0 | 12.0 | 0.00 | 0.00 | 0.00 | 82 | 1012.5 |
| 20260509110819 | 59 | 180 | 2.0 | 4.0 | 0.00 | 0.00 | 0.00 | 83 | 1012.5 |
| 20260509105839 | 58 | 180 | 4.0 | 9.0 | 0.00 | 0.00 | 0.00 | 83 | 1012.5 |
| 20260509104819 | 58 | 203 | 2.0 | 4.0 | 0.00 | 0.00 | 0.00 | 84 | 1012.4 |
| 20260509103819 | 58 | 158 | 3.0 | 5.0 | 0.00 | 0.00 | 0.00 | 84 | 1012.4 |
| 20260509102818 | 58 | 158 | 2.0 | 5.0 | 0.00 | 0.00 | 0.00 | 85 | 1012.3 |
| 20260509101838 | 58 | 158 | 4.0 | 8.0 | 0.00 | 0.00 | 0.00 | 85 | 1012.3 |
| 20260509100818 | 58 | 158 | 2.0 | 5.0 | 0.00 | 0.00 | 0.00 | 85 | 1012.3 |
| 20260509095818 | 58 | 180 | 3.0 | 6.0 | 0.00 | 0.00 | 0.00 | 85 | 1012.3 |
| 20260509094818 | 58 | 68 | 3.0 | 5.0 | 0.00 | 0.00 | 0.00 | 85 | 1012.2 |
| 20260509093818 | 58 | 180 | 3.0 | 5.0 | 0.00 | 0.00 | 0.00 | 84 | 1012.2 |
| 20260509092818 | 58 | 135 | 1.0 | 3.0 | 0.00 | 0.00 | 0.00 | 84 | 1012.2 |
| 20260509091819 | 59 | 180 | 3.0 | 5.0 | 0.00 | 0.00 | 0.00 | 83 | 1012.1 |
| 20260509090819 | 59 | 158 | 3.0 | 9.0 | 0.00 | 0.00 | 0.00 | 83 | 1012.1 |
| 20260509085820 | 59 | 158 | 3.0 | 5.0 | 0.00 | 0.00 | 0.00 | 82 | 1012.1 |
| 20260509084820 | 59 | 135 | 1.0 | 5.0 | 0.00 | 0.00 | 0.00 | 82 | 1012.1 |
| 20260509083818 | 59 | 180 | 2.0 | 3.0 | 0.00 | 0.00 | 0.00 | 82 | 1012.2 |
| 20260509082819 | 59 | 135 | 2.0 | 3.0 | 0.00 | 0.00 | 0.00 | 82 | 1012.4 |
| 20260509081818 | 59 | 180 | 2.0 | 6.0 | 0.00 | 0.00 | 0.00 | 82 | 1012.4 |
| 20260509080820 | 59 | 0.0 | 1.0 | 0.00 | 0.00 | 0.00 | 81 | 1012.4 | |
| 20260509075818 | 59 | 135 | 1.0 | 2.0 | 0.00 | 0.00 | 0.00 | 82 | 1012.5 |
| 20260509074818 | 59 | 203 | 4.0 | 9.0 | 0.00 | 0.00 | 0.00 | 82 | 1012.4 |
| 20260509073818 | 59 | 158 | 1.0 | 2.0 | 0.00 | 0.00 | 0.00 | 82 | 1012.5 |
| 20260509072818 | 59 | 180 | 2.0 | 4.0 | 0.00 | 0.00 | 0.00 | 83 | 1012.6 |
| 20260509071818 | 59 | 158 | 1.0 | 2.0 | 0.00 | 0.00 | 0.00 | 83 | 1012.7 |
| 20260509070818 | 59 | 135 | 2.0 | 5.0 | 0.00 | 0.00 | 0.00 | 83 | 1012.6 |
| 20260509065820 | 59 | 158 | 1.0 | 2.0 | 0.00 | 0.00 | 0.00 | 82 | 1012.7 |
| 20260509064818 | 59 | 180 | 1.0 | 2.0 | 0.00 | 0.00 | 0.00 | 82 | 1012.7 |
| 20260509063820 | 59 | 90 | 1.0 | 4.0 | 0.00 | 0.00 | 0.00 | 81 | 1012.8 |
| 20260509062818 | 59 | 180 | 3.0 | 6.0 | 0.00 | 0.00 | 0.00 | 81 | 1012.9 |
| 20260509061818 | 59 | 158 | 1.0 | 2.0 | 0.00 | 0.00 | 0.00 | 81 | 1013.0 |
| 20260509060820 | 59 | 180 | 1.0 | 1.0 | 0.00 | 0.00 | 0.00 | 80 | 1013.0 |
| 20260509055820 | 59 | 180 | 3.0 | 4.0 | 0.00 | 0.00 | 0.00 | 80 | 1013.0 |
| 20260509054820 | 58 | 180 | 6.0 | 11.0 | 0.00 | 0.00 | 0.00 | 81 | 1013.0 |
| 20260509053820 | 58 | 180 | 2.0 | 4.0 | 0.00 | 0.00 | 0.00 | 82 | 1013.0 |
| 20260509052818 | 58 | 180 | 3.0 | 7.0 | 0.00 | 0.00 | 0.00 | 82 | 1013.0 |
| 20260509051818 | 58 | 180 | 2.0 | 6.0 | 0.00 | 0.00 | 0.00 | 81 | 1013.1 |
| 20260509050820 | 58 | 158 | 2.0 | 6.0 | 0.00 | 0.00 | 0.00 | 80 | 1013.1 |
| 20260509045840 | 58 | 180 | 3.0 | 8.0 | 0.00 | 0.00 | 0.00 | 80 | 1013.0 |
| 20260509044818 | 58 | 203 | 3.0 | 8.0 | 0.00 | 0.00 | 0.00 | 79 | 1013.1 |
| 20260509043819 | 58 | 180 | 2.0 | 4.0 | 0.00 | 0.00 | 0.00 | 79 | 1013.1 |
| 20260509042820 | 59 | 203 | 3.0 | 5.0 | 0.00 | 0.00 | 0.00 | 79 | 1013.3 |
| 20260509041821 | 58 | 158 | 2.0 | 8.0 | 0.00 | 0.00 | 0.00 | 79 | 1013.3 |
| 20260509040820 | 58 | 203 | 5.0 | 11.0 | 0.00 | 0.00 | 0.00 | 79 | 1013.4 |
| 20260509035819 | 59 | 180 | 2.0 | 5.0 | 0.00 | 0.00 | 0.00 | 78 | 1013.5 |
| 20260509034819 | 59 | 158 | 4.0 | 6.0 | 0.00 | 0.00 | 0.00 | 78 | 1013.5 |
| 20260509033819 | 59 | 203 | 2.0 | 4.0 | 0.00 | 0.00 | 0.00 | 77 | 1013.4 |
| 20260509032819 | 59 | 135 | 1.0 | 3.0 | 0.00 | 0.00 | 0.00 | 77 | 1013.4 |
| 20260509031819 | 59 | 180 | 1.0 | 2.0 | 0.00 | 0.00 | 0.00 | 76 | 1013.6 |
| 20260509030819 | 59 | 158 | 3.0 | 8.0 | 0.00 | 0.00 | 0.00 | 76 | 1013.6 |
| 20260509025819 | 59 | 203 | 2.0 | 4.0 | 0.00 | 0.00 | 0.00 | 75 | 1013.5 |
| 20260509024819 | 59 | 158 | 1.0 | 2.0 | 0.00 | 0.00 | 0.00 | 74 | 1013.4 |
| 20260509023819 | 59 | 158 | 3.0 | 6.0 | 0.00 | 0.00 | 0.00 | 74 | 1013.3 |
| 20260509022819 | 59 | 158 | 2.0 | 5.0 | 0.00 | 0.00 | 0.00 | 73 | 1013.3 |
| 20260509021819 | 59 | 180 | 1.0 | 2.0 | 0.00 | 0.00 | 0.00 | 72 | 1013.4 |
| 20260509020819 | 59 | 180 | 1.0 | 4.0 | 0.00 | 0.00 | 0.00 | 72 | 1013.4 |
| 20260509015819 | 60 | 180 | 3.0 | 8.0 | 0.00 | 0.00 | 0.00 | 71 | 1013.4 |
| 20260509014818 | 60 | 180 | 3.0 | 9.0 | 0.00 | 0.00 | 0.00 | 70 | 1013.4 |
| 20260509013819 | 60 | 180 | 1.0 | 4.0 | 0.00 | 0.00 | 0.00 | 69 | 1013.3 |
| 20260509012859 | 60 | 113 | 1.0 | 3.0 | 0.00 | 0.00 | 0.00 | 68 | 1013.2 |
| 20260509011818 | 60 | 158 | 4.0 | 8.0 | 0.00 | 0.00 | 0.00 | 68 | 1013.3 |
| 20260509010819 | 60 | 180 | 2.0 | 4.0 | 0.00 | 0.00 | 0.00 | 68 | 1013.1 |
| 20260509005818 | 61 | 135 | 2.0 | 7.0 | 0.00 | 0.00 | 0.00 | 67 | 1012.9 |
| 20260509004838 | 61 | 180 | 5.0 | 9.0 | 0.00 | 0.00 | 0.00 | 66 | 1012.9 |
| 20260509003819 | 61 | 158 | 2.0 | 7.0 | 0.00 | 0.00 | 0.00 | 65 | 1012.8 |
| 20260509002839 | 61 | 203 | 1.0 | 3.0 | 0.00 | 0.00 | 0.00 | 63 | 1012.7 |
| 20260509001818 | 61 | 225 | 1.0 | 3.0 | 0.00 | 0.00 | 0.00 | 62 | 1012.6 |
| 20260509000818 | 62 | 203 | 2.0 | 4.0 | 0.00 | 0.00 | 0.00 | 61 | 1012.6 |
| 20260508235819 | 62 | 180 | 1.0 | 3.0 | 0.00 | 0.00 | 0.00 | 59 | 1012.5 |
| 20260508234838 | 62 | 180 | 4.0 | 11.0 | 0.00 | 0.00 | 0.00 | 58 | 1012.3 |
| 20260508233818 | 63 | 158 | 2.0 | 4.0 | 0.00 | 0.00 | 0.00 | 57 | 1012.4 |
| 20260508232818 | 63 | 180 | 1.0 | 3.0 | 0.00 | 0.00 | 0.00 | 56 | 1012.2 |
| 20260508231818 | 63 | 135 | 3.0 | 4.0 | 0.00 | 0.00 | 0.00 | 55 | 1012.3 |
| 20260508230838 | 63 | 158 | 2.0 | 5.0 | 0.00 | 0.00 | 0.00 | 53 | 1012.2 |
| 20260508225818 | 64 | 180 | 2.0 | 3.0 | 0.00 | 0.00 | 0.00 | 52 | 1012.1 |
| 20260508224818 | 64 | 158 | 4.0 | 9.0 | 0.00 | 0.00 | 0.00 | 51 | 1012.3 |
| 20260508223818 | 64 | 180 | 5.0 | 9.0 | 0.00 | 0.00 | 0.00 | 51 | 1012.1 |
| 20260508222838 | 64 | 180 | 5.0 | 11.0 | 0.00 | 0.00 | 0.00 | 53 | 1012.1 |
| 20260508221819 | 65 | 180 | 4.0 | 7.0 | 0.00 | 0.00 | 0.00 | 50 | 1012.2 |
| 20260508220818 | 66 | 158 | 5.0 | 11.0 | 0.00 | 0.00 | 0.00 | 49 | 1012.2 |
| 20260508215818 | 66 | 180 | 3.0 | 5.0 | 0.00 | 0.00 | 0.00 | 49 | 1012.1 |
| 20260508214819 | 66 | 180 | 3.0 | 7.0 | 0.00 | 0.00 | 0.00 | 49 | 1012.2 |
| 20260508213818 | 66 | 158 | 6.0 | 12.0 | 0.00 | 0.00 | 0.00 | 48 | 1012.1 |
| 20260508212818 | 66 | 180 | 6.0 | 10.0 | 0.00 | 0.00 | 0.00 | 50 | 1012.1 |
| 20260508211818 | 67 | 158 | 7.0 | 11.0 | 0.00 | 0.00 | 0.00 | 48 | 1012.1 |
| 20260508210819 | 67 | 180 | 2.0 | 4.0 | 0.00 | 0.00 | 0.00 | 50 | 1012.1 |
| 20260508205820 | 67 | 180 | 4.0 | 6.0 | 0.00 | 0.00 | 0.00 | 48 | 1012.2 |
| 20260508204838 | 67 | 180 | 3.0 | 5.0 | 0.00 | 0.00 | 0.00 | 48 | 1012.3 |
| 20260508203818 | 67 | 180 | 5.0 | 9.0 | 0.00 | 0.00 | 0.00 | 46 | 1012.4 |
| 20260508202820 | 68 | 203 | 5.0 | 9.0 | 0.00 | 0.00 | 0.00 | 45 | 1012.5 |
| 20260508201820 | 68 | 180 | 5.0 | 11.0 | 0.00 | 0.00 | 0.00 | 46 | 1012.7 |
| 20260508200818 | 68 | 180 | 5.0 | 8.0 | 0.00 | 0.00 | 0.00 | 46 | 1012.9 |
| 20260508195819 | 68 | 180 | 4.0 | 9.0 | 0.00 | 0.00 | 0.00 | 49 | 1012.9 |
| 20260508194820 | 68 | 203 | 4.0 | 12.0 | 0.00 | 0.00 | 0.00 | 46 | 1012.9 |
| 20260508193820 | 68 | 158 | 4.0 | 9.0 | 0.00 | 0.00 | 0.00 | 49 | 1013.0 |
| 20260508192820 | 68 | 180 | 4.0 | 9.0 | 0.00 | 0.00 | 0.00 | 44 | 1013.1 |